Lake Dynasty — 3FZB2 — position and weather

sailwx.info

Track history (hours):
 
Tides and Currents Weather Stations Pressure Air Temp Water Temp Dewpoint Dewpoint Depression Visibility Wind Speed Wind Dir Waves Ship Positions

Lake Dynasty

Last reported at 2015-Feb-26 12:16 UTC. Time now 2015-Apr-21 13:07 UTC.
Position N 02°05' E 102°06'.
Warning: this ship's position is 54 days out of date.

Length 182 m; draft 12.8 m.

Type: Cargo ship. MMSI: 370957000.

Date/timePositionNaut miles runAvg speedWind from/ knotsBaromVisibWave heightAir tempDewpointWater temp
2015-Feb-26 12:16N 02°05' E 102°06'1014.3
2015-Feb-26 11:33N 01°58' E 102°13'1414.1
2015-Feb-26 10:33N 01°52' E 102°26'1413.9
2015-Feb-26 09:32N 01°45' E 102°39'1313.3
2015-Feb-26 08:31N 01°40' E 102°51'6312.7
2015-Feb-26 03:33N 01°10' E 103°47'6 6.2
2015-Feb-26 02:32N 01°12' E 103°52'9 9.1
2015-Feb-26 01:33N 01°15' E 104°01'10 9.7
2015-Feb-26 00:33N 01°17' E 104°10'  
Track history (hours):
 
Tides and Currents Weather Stations Pressure Air Temp Water Temp Dewpoint Dewpoint Depression Visibility Wind Speed Wind Dir Waves Ship Positions

Lake Dynasty

Last reported at 2015-Feb-26 12:16 UTC. Time now 2015-Apr-21 13:07 UTC.
Position N 02°05' E 102°06'.
Warning: this ship's position is 54 days out of date.

Length 182 m; draft 12.8 m.

Type: Cargo ship. MMSI: 370957000.

Date/timePositionNaut miles runAvg speedWind from/ knotsBaromVisibWave heightAir tempDewpointWater temp
2015-Feb-26 12:16N 02°05' E 102°06'1014.3
2015-Feb-26 11:33N 01°58' E 102°13'1414.1
2015-Feb-26 10:33N 01°52' E 102°26'1413.9
2015-Feb-26 09:32N 01°45' E 102°39'1313.3
2015-Feb-26 08:31N 01°40' E 102°51'6312.7
2015-Feb-26 03:33N 01°10' E 103°47'6 6.2
2015-Feb-26 02:32N 01°12' E 103°52'9 9.1
2015-Feb-26 01:33N 01°15' E 104°01'10 9.7
2015-Feb-26 00:33N 01°17' E 104°10'  

Dump ship's entire track history